Language: 


Des rapports , des résumés tant et plus, au choix de chacun....


Données Historiques de Météogheer
Journalier Rapport pour Janvier 20, 2017 Unitée:  Les deux    Impériale   Métrique
Suivant Jour »
Journalier Hebdomadaire Mensuel Annuel Sur mesure
  Max: Min: Moyenne:
Température: 40.6 °F /  4.8 °C 25.5 °F /  -3.6 °C 31.3 °F /  -0.4 °C
Point de rosée: 27 °F /  -2.8 °C 19.6 °F /  -6.9 °C 23 °F /  -5 °C
Humidité: 89% 0% 72%
Vent: 9.8mph /  15.8km/h - 5mph /  8km/h
Rafales: 10.7mph /  17.2km/h - -
Vent- - ENE
Pression: 30.5 in /  1034.1 hPa 30.4 in /  1030.0 hPa -
Pluie: 0 in /  0.0 mm    
Historical Graphs
 
 
Données tabulaires pour Janvier 20, 2017
Heure Température Point de rosée Pression Vent Vent Rafales Humidité Pluie Taux (Horaire) Conditions
00:01 28.6 °F /  -1.9 °C 22.6 °F /  -5.2 °C 30.5in /  1034.1hPa NNE 3.8mph /  6.1km/h 5.8mph /  9.3km/h 78% 0in /  0.0mm
00:06 28.6 °F /  -1.9 °C 22.5 °F /  -5.3 °C 30.5in /  1034.1hPa NE 4.3mph /  6.9km/h 5.8mph /  9.3km/h 78% 0in /  0.0mm
00:11 28.2 °F /  -2.1 °C 22.3 °F /  -5.4 °C 30.5in /  1034.1hPa NE 4mph /  6.4km/h 4.3mph /  6.9km/h 78% 0in /  0.0mm
00:16 28 °F /  -2.2 °C 22.5 °F /  -5.3 °C 30.5in /  1034.1hPa NNE 4.7mph /  7.6km/h 5.6mph /  9.0km/h 79% 0in /  0.0mm
00:21 28 °F /  -2.2 °C 22.5 °F /  -5.3 °C 30.5in /  1034.1hPa NNE 4.3mph /  6.9km/h 6mph /  9.7km/h 79% 0in /  0.0mm
00:26 27.9 °F /  -2.3 °C 22.3 °F /  -5.4 °C 30.5in /  1034.1hPa North 5.4mph /  8.7km/h 6mph /  9.7km/h 79% 0in /  0.0mm
00:31 27.9 °F /  -2.3 °C 22.6 °F /  -5.2 °C 30.5in /  1034.1hPa North 5.4mph /  8.7km/h 6.5mph /  10.5km/h 80% 0in /  0.0mm
00:36 28 °F /  -2.2 °C 22.6 °F /  -5.2 °C 30.5in /  1034.1hPa NE 5.8mph /  9.3km/h 6.5mph /  10.5km/h 80% 0in /  0.0mm
00:41 28 °F /  -2.2 °C 22.6 °F /  -5.2 °C 30.5in /  1033.1hPa NNE 7.4mph /  11.9km/h 7.4mph /  11.9km/h 80% 0in /  0.0mm
00:46 28 °F /  -2.2 °C 22.6 °F /  -5.2 °C 30.5in /  1033.1hPa NE 6.5mph /  10.5km/h 7.4mph /  11.9km/h 80% 0in /  0.0mm
00:51 28 °F /  -2.2 °C 22.6 °F /  -5.2 °C 30.5in /  1033.1hPa NNE 4mph /  6.4km/h 7.2mph /  11.6km/h 80% 0in /  0.0mm
00:56 28 °F /  -2.2 °C 23 °F /  -5.0 °C 30.5in /  1033.1hPa NNE 4.3mph /  6.9km/h 6.5mph /  10.5km/h 81% 0in /  0.0mm
01:01 27.9 °F /  -2.3 °C 22.6 °F /  -5.2 °C 30.5in /  1033.1hPa NE 3.6mph /  5.8km/h 6.3mph /  10.1km/h 80% 0in /  0.0mm
01:06 27.9 °F /  -2.3 °C 22.8 °F /  -5.1 °C 30.5in /  1033.1hPa NNE 4.5mph /  7.2km/h 6mph /  9.7km/h 81% 0in /  0.0mm
01:11 27.9 °F /  -2.3 °C 22.6 °F /  -5.2 °C 30.5in /  1033.1hPa North 4mph /  6.4km/h 6mph /  9.7km/h 81% 0in /  0.0mm
01:16 27.9 °F /  -2.3 °C 22.6 °F /  -5.2 °C 30.5in /  1033.1hPa North 4mph /  6.4km/h 7.2mph /  11.6km/h 81% 0in /  0.0mm
01:21 27.7 °F /  -2.4 °C 22.5 °F /  -5.3 °C 30.5in /  1033.1hPa NNE 4.9mph /  7.9km/h 7.2mph /  11.6km/h 81% 0in /  0.0mm
01:26 27.7 °F /  -2.4 °C 22.5 °F /  -5.3 °C 30.5in /  1033.1hPa NE 4mph /  6.4km/h 6.3mph /  10.1km/h 81% 0in /  0.0mm
01:31 27.3 °F /  -2.6 °C 22.6 °F /  -5.2 °C 30.5in /  1033.1hPa NNE 3.4mph /  5.5km/h 6.3mph /  10.1km/h 82% 0in /  0.0mm
01:36 27.3 °F /  -2.6 °C 22.6 °F /  -5.2 °C 30.5in /  1033.1hPa North 5.4mph /  8.7km/h 5.6mph /  9.0km/h 82% 0in /  0.0mm
01:41 27.1 °F /  -2.7 °C 22.5 °F /  -5.3 °C 30.5in /  1033.1hPa NE 3.6mph /  5.8km/h 5.6mph /  9.0km/h 82% 0in /  0.0mm
01:46 27.1 °F /  -2.7 °C 22.5 °F /  -5.3 °C 30.5in /  1033.1hPa NNE 4.9mph /  7.9km/h 6mph /  9.7km/h 82% 0in /  0.0mm
01:51 27.1 °F /  -2.7 °C 22.5 °F /  -5.3 °C 30.5in /  1033.1hPa NNE 5.6mph /  9.0km/h 6.5mph /  10.5km/h 82% 0in /  0.0mm
01:56 27.1 °F /  -2.7 °C 22.8 °F /  -5.1 °C 30.5in /  1032.1hPa NNE 6mph /  9.7km/h 6.5mph /  10.5km/h 83% 0in /  0.0mm
02:02 32 °F /  0.0 °C 22.8 °F /  -5.1 °C 30.5in /  1032.1hPa Calm     0% 0in /  0.0mm
02:07 27.1 °F /  -2.7 °C 22.8 °F /  -5.1 °C 30.5in /  1033.1hPa North 5.4mph /  8.7km/h 6.9mph /  11.1km/h 83% 0in /  0.0mm
02:12 27.1 °F /  -2.7 °C 22.6 °F /  -5.2 °C 30.5in /  1033.1hPa NE 4.9mph /  7.9km/h 7.2mph /  11.6km/h 83% 0in /  0.0mm
02:17 27.1 °F /  -2.7 °C 22.6 °F /  -5.2 °C 30.5in /  1033.1hPa NNE 4.3mph /  6.9km/h 7.2mph /  11.6km/h 83% 0in /  0.0mm
02:22 27.1 °F /  -2.7 °C 22.8 °F /  -5.1 °C 30.5in /  1033.1hPa NNE 4.9mph /  7.9km/h 6.5mph /  10.5km/h 83% 0in /  0.0mm
02:27 27.1 °F /  -2.7 °C 23 °F /  -5.0 °C 30.5in /  1033.1hPa NNE 6.5mph /  10.5km/h 6.5mph /  10.5km/h 84% 0in /  0.0mm
02:32 27.1 °F /  -2.7 °C 23 °F /  -5.0 °C 30.5in /  1033.1hPa NE 6mph /  9.7km/h 7.6mph /  12.2km/h 84% 0in /  0.0mm
02:37 27.1 °F /  -2.7 °C 23 °F /  -5.0 °C 30.5in /  1033.1hPa NNE 7.2mph /  11.6km/h 7.8mph /  12.6km/h 84% 0in /  0.0mm
02:42 27.1 °F /  -2.7 °C 23 °F /  -5.0 °C 30.5in /  1033.1hPa NE 5.8mph /  9.3km/h 7.8mph /  12.6km/h 84% 0in /  0.0mm
02:47 27.1 °F /  -2.7 °C 23 °F /  -5.0 °C 30.5in /  1033.1hPa NE 6mph /  9.7km/h 7.4mph /  11.9km/h 84% 0in /  0.0mm
02:52 27.1 °F /  -2.7 °C 23 °F /  -5.0 °C 30.5in /  1033.1hPa North 4.9mph /  7.9km/h 8.7mph /  14.0km/h 84% 0in /  0.0mm
02:57 27.1 °F /  -2.7 °C 23 °F /  -5.0 °C 30.5in /  1033.1hPa NE 6.3mph /  10.1km/h 8.7mph /  14.0km/h 84% 0in /  0.0mm
03:02 27.1 °F /  -2.7 °C 22.8 °F /  -5.1 °C 30.5in /  1033.1hPa NNE 5.8mph /  9.3km/h 8.1mph /  13.0km/h 84% 0in /  0.0mm
03:07 27.1 °F /  -2.7 °C 22.8 °F /  -5.1 °C 30.5in /  1032.1hPa North 6.5mph /  10.5km/h 8.1mph /  13.0km/h 84% 0in /  0.0mm
03:12 27.1 °F /  -2.7 °C 22.8 °F /  -5.1 °C 30.5in /  1032.1hPa NE 2.9mph /  4.7km/h 6.5mph /  10.5km/h 84% 0in /  0.0mm
03:17 27.1 °F /  -2.7 °C 22.8 °F /  -5.1 °C 30.5in /  1032.1hPa NNE 4.9mph /  7.9km/h 6mph /  9.7km/h 84% 0in /  0.0mm
03:22 27.1 °F /  -2.7 °C 22.8 °F /  -5.1 °C 30.5in /  1033.1hPa North 5.6mph /  9.0km/h 6mph /  9.7km/h 84% 0in /  0.0mm
03:27 27.1 °F /  -2.7 °C 22.8 °F /  -5.1 °C 30.5in /  1033.1hPa NNE 4.3mph /  6.9km/h 6.3mph /  10.1km/h 84% 0in /  0.0mm
03:32 27.1 °F /  -2.7 °C 22.8 °F /  -5.1 °C 30.5in /  1033.1hPa NNE 6mph /  9.7km/h 6.3mph /  10.1km/h 84% 0in /  0.0mm
03:37 27.1 °F /  -2.7 °C 22.8 °F /  -5.1 °C 30.5in /  1033.1hPa NNE 6.5mph /  10.5km/h 6.7mph /  10.8km/h 84% 0in /  0.0mm
03:42 27.1 °F /  -2.7 °C 22.8 °F /  -5.1 °C 30.5in /  1033.1hPa NNE 4.3mph /  6.9km/h 7.4mph /  11.9km/h 84% 0in /  0.0mm
03:47 27.1 °F /  -2.7 °C 22.8 °F /  -5.1 °C 30.5in /  1033.1hPa NNE 6mph /  9.7km/h 7.4mph /  11.9km/h 84% 0in /  0.0mm
03:52 27 °F /  -2.8 °C 22.6 °F /  -5.2 °C 30.5in /  1033.1hPa NE 5.4mph /  8.7km/h 7.4mph /  11.9km/h 84% 0in /  0.0mm
03:57 27 °F /  -2.8 °C 22.6 °F /  -5.2 °C 30.5in /  1033.1hPa NE 5.6mph /  9.0km/h 6.5mph /  10.5km/h 84% 0in /  0.0mm
04:02 27.1 °F /  -2.7 °C 22.8 °F /  -5.1 °C 30.5in /  1033.1hPa NE 6.5mph /  10.5km/h 7.2mph /  11.6km/h 84% 0in /  0.0mm
04:07 27.1 °F /  -2.7 °C 23.2 °F /  -4.9 °C 30.5in /  1033.1hPa NE 4.3mph /  6.9km/h 7.4mph /  11.9km/h 85% 0in /  0.0mm
04:12 27.1 °F /  -2.7 °C 23.2 °F /  -4.9 °C 30.5in /  1033.1hPa NE 5.6mph /  9.0km/h 7.4mph /  11.9km/h 85% 0in /  0.0mm
04:17 27.1 °F /  -2.7 °C 23.2 °F /  -4.9 °C 30.5in /  1033.1hPa NE 3.6mph /  5.8km/h 6.5mph /  10.5km/h 85% 0in /  0.0mm
04:22 27.1 °F /  -2.7 °C 23.2 °F /  -4.9 °C 30.5in /  1033.1hPa NE 5.6mph /  9.0km/h 6.7mph /  10.8km/h 85% 0in /  0.0mm
04:27 27.1 °F /  -2.7 °C 23.4 °F /  -4.8 °C 30.5in /  1033.1hPa NE 3.6mph /  5.8km/h 6.7mph /  10.8km/h 85% 0in /  0.0mm
04:32 27.1 °F /  -2.7 °C 23.4 °F /  -4.8 °C 30.5in /  1033.1hPa NE 4.3mph /  6.9km/h 6.5mph /  10.5km/h 85% 0in /  0.0mm
04:37 27.1 °F /  -2.7 °C 23.4 °F /  -4.8 °C 30.5in /  1033.1hPa NE 5.4mph /  8.7km/h 7.2mph /  11.6km/h 85% 0in /  0.0mm
04:42 27.1 °F /  -2.7 °C 23.4 °F /  -4.8 °C 30.5in /  1033.1hPa NE 4mph /  6.4km/h 7.2mph /  11.6km/h 85% 0in /  0.0mm
04:47 27.1 °F /  -2.7 °C 23.4 °F /  -4.8 °C 30.5in /  1033.1hPa ENE 4.9mph /  7.9km/h 6.5mph /  10.5km/h 85% 0in /  0.0mm
04:52 27.1 °F /  -2.7 °C 23.4 °F /  -4.8 °C 30.5in /  1033.1hPa NNE 4.3mph /  6.9km/h 6mph /  9.7km/h 85% 0in /  0.0mm
04:57 27.1 °F /  -2.7 °C 23.2 °F /  -4.9 °C 30.5in /  1033.1hPa NNE 4.3mph /  6.9km/h 5.8mph /  9.3km/h 85% 0in /  0.0mm
05:02 27.1 °F /  -2.7 °C 23.2 °F /  -4.9 °C 30.5in /  1033.1hPa NE 2.9mph /  4.7km/h 7.6mph /  12.2km/h 85% 0in /  0.0mm
05:07 27.1 °F /  -2.7 °C 23.2 °F /  -4.9 °C 30.5in /  1033.1hPa NE 5.4mph /  8.7km/h 7.6mph /  12.2km/h 85% 0in /  0.0mm
05:12 27.1 °F /  -2.7 °C 23.5 °F /  -4.7 °C 30.5in /  1033.1hPa NE 5.6mph /  9.0km/h 6.3mph /  10.1km/h 86% 0in /  0.0mm
05:17 27.3 °F /  -2.6 °C 23.7 °F /  -4.6 °C 30.5in /  1033.1hPa NNE 5.6mph /  9.0km/h 7.6mph /  12.2km/h 86% 0in /  0.0mm
05:22 27.3 °F /  -2.6 °C 23.7 °F /  -4.6 °C 30.5in /  1032.1hPa ENE 5.4mph /  8.7km/h 7.6mph /  12.2km/h 86% 0in /  0.0mm
05:27 27.3 °F /  -2.6 °C 23.7 °F /  -4.6 °C 30.5in /  1032.1hPa NNE 7.4mph /  11.9km/h 8.7mph /  14.0km/h 86% 0in /  0.0mm
05:32 27.3 °F /  -2.6 °C 23.7 °F /  -4.6 °C 30.5in /  1032.1hPa NE 6mph /  9.7km/h 8.7mph /  14.0km/h 86% 0in /  0.0mm
05:37 27.3 °F /  -2.6 °C 23.7 °F /  -4.6 °C 30.5in /  1032.1hPa NE 5.8mph /  9.3km/h 7.6mph /  12.2km/h 86% 0in /  0.0mm
05:42 27.7 °F /  -2.4 °C 24.1 °F /  -4.4 °C 30.5in /  1032.1hPa NNE 5.6mph /  9.0km/h 7.8mph /  12.6km/h 86% 0in /  0.0mm
05:47 27.7 °F /  -2.4 °C 24.1 °F /  -4.4 °C 30.5in /  1032.1hPa NNE 5.6mph /  9.0km/h 8.5mph /  13.7km/h 86% 0in /  0.0mm
05:52 27.7 °F /  -2.4 °C 24.1 °F /  -4.4 °C 30.5in /  1032.1hPa NE 5.4mph /  8.7km/h 8.5mph /  13.7km/h 86% 0in /  0.0mm
05:57 27.3 °F /  -2.6 °C 23.7 °F /  -4.6 °C 30.5in /  1032.1hPa NNE 6.3mph /  10.1km/h 8.5mph /  13.7km/h 86% 0in /  0.0mm
06:02 27.3 °F /  -2.6 °C 23.7 °F /  -4.6 °C 30.5in /  1032.1hPa NE 6mph /  9.7km/h 7.8mph /  12.6km/h 86% 0in /  0.0mm
06:07 27.1 °F /  -2.7 °C 23.4 °F /  -4.8 °C 30.5in /  1032.1hPa NE 7.2mph /  11.6km/h 7.2mph /  11.6km/h 86% 0in /  0.0mm
06:12 27.1 °F /  -2.7 °C 23.4 °F /  -4.8 °C 30.5in /  1032.1hPa ENE 4mph /  6.4km/h 7.2mph /  11.6km/h 86% 0in /  0.0mm
06:17 27.1 °F /  -2.7 °C 23.4 °F /  -4.8 °C 30.5in /  1032.1hPa NE 3.8mph /  6.1km/h 8.1mph /  13.0km/h 86% 0in /  0.0mm
06:22 27.1 °F /  -2.7 °C 23.4 °F /  -4.8 °C 30.5in /  1032.1hPa NE 5.4mph /  8.7km/h 8.1mph /  13.0km/h 86% 0in /  0.0mm
06:28 27.1 °F /  -2.7 °C 23.4 °F /  -4.8 °C 30.5in /  1032.1hPa ENE 6mph /  9.7km/h 6.7mph /  10.8km/h 86% 0in /  0.0mm
06:32 27 °F /  -2.8 °C 23.4 °F /  -4.8 °C 30.5in /  1032.1hPa NE 4.9mph /  7.9km/h 6.5mph /  10.5km/h 86% 0in /  0.0mm
06:37 26.8 °F /  -2.9 °C 23.4 °F /  -4.8 °C 30.5in /  1032.1hPa NE 4.9mph /  7.9km/h 6.5mph /  10.5km/h 87% 0in /  0.0mm
06:43 26.8 °F /  -2.9 °C 23.4 °F /  -4.8 °C 30.5in /  1032.1hPa ENE 5.4mph /  8.7km/h 6.7mph /  10.8km/h 87% 0in /  0.0mm
06:48 27 °F /  -2.8 °C 23.5 °F /  -4.7 °C 30.5in /  1032.1hPa NE 5.4mph /  8.7km/h 7.6mph /  12.2km/h 87% 0in /  0.0mm
06:53 27 °F /  -2.8 °C 23.5 °F /  -4.7 °C 30.5in /  1032.1hPa NE 4.3mph /  6.9km/h 7.6mph /  12.2km/h 87% 0in /  0.0mm
06:58 27.1 °F /  -2.7 °C 23.7 °F /  -4.6 °C 30.5in /  1032.1hPa NE 7.6mph /  12.2km/h 7.6mph /  12.2km/h 87% 0in /  0.0mm
07:03 27.1 °F /  -2.7 °C 23.7 °F /  -4.6 °C 30.5in /  1032.1hPa NE 5.4mph /  8.7km/h 7.6mph /  12.2km/h 87% 0in /  0.0mm
07:08 27.1 °F /  -2.7 °C 23.7 °F /  -4.6 °C 30.5in /  1032.1hPa NE 5.4mph /  8.7km/h 7.8mph /  12.6km/h 87% 0in /  0.0mm
07:13 27 °F /  -2.8 °C 23.5 °F /  -4.7 °C 30.5in /  1032.1hPa NNE 4.9mph /  7.9km/h 7.8mph /  12.6km/h 87% 0in /  0.0mm
07:18 26.8 °F /  -2.9 °C 23.4 °F /  -4.8 °C 30.5in /  1032.1hPa North 3.8mph /  6.1km/h 5.8mph /  9.3km/h 87% 0in /  0.0mm
07:23 26.4 °F /  -3.1 °C 23 °F /  -5.0 °C 30.5in /  1032.1hPa North 3.8mph /  6.1km/h 5.4mph /  8.7km/h 87% 0in /  0.0mm
07:28 26.4 °F /  -3.1 °C 23.2 °F /  -4.9 °C 30.5in /  1032.1hPa ENE 6.5mph /  10.5km/h 6.5mph /  10.5km/h 87% 0in /  0.0mm
07:33 26.4 °F /  -3.1 °C 23.5 °F /  -4.7 °C 30.5in /  1032.1hPa NE 4.7mph /  7.6km/h 7.8mph /  12.6km/h 88% 0in /  0.0mm
07:38 26.4 °F /  -3.1 °C 23.5 °F /  -4.7 °C 30.5in /  1032.1hPa NE 3.8mph /  6.1km/h 7.8mph /  12.6km/h 88% 0in /  0.0mm
07:43 26.4 °F /  -3.1 °C 23.5 °F /  -4.7 °C 30.5in /  1032.1hPa ENE 4.9mph /  7.9km/h 5.6mph /  9.0km/h 88% 0in /  0.0mm
07:48 26.4 °F /  -3.1 °C 23.4 °F /  -4.8 °C 30.5in /  1032.1hPa NE 3.8mph /  6.1km/h 5.6mph /  9.0km/h 88% 0in /  0.0mm
07:53 26.2 °F /  -3.2 °C 22.8 °F /  -5.1 °C 30.5in /  1032.1hPa NE 4mph /  6.4km/h 5.8mph /  9.3km/h 87% 0in /  0.0mm
07:58 26.1 °F /  -3.3 °C 22.6 °F /  -5.2 °C 30.5in /  1032.1hPa NNE 4mph /  6.4km/h 5.8mph /  9.3km/h 87% 0in /  0.0mm
08:03 25.9 °F /  -3.4 °C 22.5 °F /  -5.3 °C 30.5in /  1032.1hPa NE 4mph /  6.4km/h 5.6mph /  9.0km/h 87% 0in /  0.0mm
08:08 25.5 °F /  -3.6 °C 22.3 °F /  -5.4 °C 30.5in /  1032.1hPa NE 4mph /  6.4km/h 4.9mph /  7.9km/h 87% 0in /  0.0mm
08:13 25.5 °F /  -3.6 °C 22.6 °F /  -5.2 °C 30.5in /  1032.1hPa NE 3.8mph /  6.1km/h 4.9mph /  7.9km/h 88% 0in /  0.0mm
08:18 25.5 °F /  -3.6 °C 22.6 °F /  -5.2 °C 30.5in /  1032.1hPa ENE 4mph /  6.4km/h 4.9mph /  7.9km/h 88% 0in /  0.0mm
08:23 25.5 °F /  -3.6 °C 22.6 °F /  -5.2 °C 30.5in /  1032.1hPa ENE 3.4mph /  5.5km/h 6mph /  9.7km/h 88% 0in /  0.0mm
08:28 25.5 °F /  -3.6 °C 22.6 °F /  -5.2 °C 30.5in /  1032.1hPa North 4.3mph /  6.9km/h 6.5mph /  10.5km/h 88% 0in /  0.0mm
08:33 25.5 °F /  -3.6 °C 22.6 °F /  -5.2 °C 30.5in /  1032.1hPa NE 4.9mph /  7.9km/h 7.2mph /  11.6km/h 88% 0in /  0.0mm
08:38 25.9 °F /  -3.4 °C 22.8 °F /  -5.1 °C 30.5in /  1033.1hPa ENE 5.4mph /  8.7km/h 7.2mph /  11.6km/h 88% 0in /  0.0mm
08:43 25.9 °F /  -3.4 °C 23 °F /  -5.0 °C 30.5in /  1033.1hPa NNE 7.2mph /  11.6km/h 7.2mph /  11.6km/h 89% 0in /  0.0mm
08:48 25.9 °F /  -3.4 °C 23 °F /  -5.0 °C 30.5in /  1033.1hPa NNE 7.6mph /  12.2km/h 7.8mph /  12.6km/h 89% 0in /  0.0mm
08:53 25.9 °F /  -3.4 °C 23 °F /  -5.0 °C 30.5in /  1032.1hPa NE 6.3mph /  10.1km/h 7.8mph /  12.6km/h 89% 0in /  0.0mm
08:58 25.9 °F /  -3.4 °C 23 °F /  -5.0 °C 30.5in /  1032.1hPa North 4.9mph /  7.9km/h 8.1mph /  13.0km/h 89% 0in /  0.0mm
09:03 26.1 °F /  -3.3 °C 23.2 °F /  -4.9 °C 30.5in /  1032.1hPa NE 6.3mph /  10.1km/h 8.1mph /  13.0km/h 89% 0in /  0.0mm
09:08 26.2 °F /  -3.2 °C 23.4 °F /  -4.8 °C 30.5in /  1032.1hPa NE 6.5mph /  10.5km/h 7.8mph /  12.6km/h 89% 0in /  0.0mm
09:13 26.2 °F /  -3.2 °C 23.4 °F /  -4.8 °C 30.5in /  1032.1hPa NE 6.5mph /  10.5km/h 8.1mph /  13.0km/h 89% 0in /  0.0mm
09:18 26.4 °F /  -3.1 °C 23.5 °F /  -4.7 °C 30.5in /  1032.1hPa NE 6.5mph /  10.5km/h 8.1mph /  13.0km/h 89% 0in /  0.0mm
09:23 26.4 °F /  -3.1 °C 23.7 °F /  -4.6 °C 30.5in /  1032.1hPa ENE 4.9mph /  7.9km/h 6.5mph /  10.5km/h 89% 0in /  0.0mm
09:28 27 °F /  -2.8 °C 24.1 °F /  -4.4 °C 30.5in /  1032.1hPa NNE 5.4mph /  8.7km/h 7.6mph /  12.2km/h 89% 0in /  0.0mm
09:33 27.1 °F /  -2.7 °C 24.3 °F /  -4.3 °C 30.5in /  1032.1hPa NNE 6mph /  9.7km/h 7.6mph /  12.2km/h 89% 0in /  0.0mm
09:38 27.1 °F /  -2.7 °C 24.4 °F /  -4.2 °C 30.5in /  1032.1hPa NNE 3.4mph /  5.5km/h 7.6mph /  12.2km/h 89% 0in /  0.0mm
09:43 27.7 °F /  -2.4 °C 24.8 °F /  -4.0 °C 30.5in /  1032.1hPa ENE 4.3mph /  6.9km/h 7.6mph /  12.2km/h 89% 0in /  0.0mm
09:48 27.9 °F /  -2.3 °C 25.2 °F /  -3.8 °C 30.5in /  1032.1hPa NE 3.6mph /  5.8km/h 6.5mph /  10.5km/h 89% 0in /  0.0mm
09:53 28.6 °F /  -1.9 °C 25.5 °F /  -3.6 °C 30.5in /  1033.1hPa NE 5.4mph /  8.7km/h 6.5mph /  10.5km/h 89% 0in /  0.0mm
09:58 28.8 °F /  -1.8 °C 25.7 °F /  -3.5 °C 30.5in /  1033.1hPa NE 4.9mph /  7.9km/h 6.3mph /  10.1km/h 88% 0in /  0.0mm
10:03 29.1 °F /  -1.6 °C 26.1 °F /  -3.3 °C 30.5in /  1033.1hPa ENE 5.4mph /  8.7km/h 6.3mph /  10.1km/h 88% 0in /  0.0mm
10:08 29.5 °F /  -1.4 °C 26.1 °F /  -3.3 °C 30.5in /  1033.1hPa ENE 3.6mph /  5.8km/h 6.5mph /  10.5km/h 87% 0in /  0.0mm
10:13 30 °F /  -1.1 °C 26.8 °F /  -2.9 °C 30.5in /  1033.1hPa NE 3.8mph /  6.1km/h 6.5mph /  10.5km/h 87% 0in /  0.0mm
10:18 30.2 °F /  -1.0 °C 26.6 °F /  -3.0 °C 30.5in /  1033.1hPa ENE 5.6mph /  9.0km/h 5.6mph /  9.0km/h 86% 0in /  0.0mm
10:23 30.7 °F /  -0.7 °C 26.8 °F /  -2.9 °C 30.5in /  1033.1hPa NE 4mph /  6.4km/h 5.8mph /  9.3km/h 85% 0in /  0.0mm
10:28 31.1 °F /  -0.5 °C 26.8 °F /  -2.9 °C 30.5in /  1033.1hPa NE 4mph /  6.4km/h 5.8mph /  9.3km/h 84% 0in /  0.0mm
10:33 31.3 °F /  -0.4 °C 26.8 °F /  -2.9 °C 30.5in /  1033.1hPa NE 4mph /  6.4km/h 6mph /  9.7km/h 83% 0in /  0.0mm
10:38 31.6 °F /  -0.2 °C 26.8 °F /  -2.9 °C 30.5in /  1033.1hPa ENE 5.6mph /  9.0km/h 6.3mph /  10.1km/h 82% 0in /  0.0mm
10:43 32 °F /  0.0 °C 26.8 °F /  -2.9 °C 30.5in /  1033.1hPa ENE 5.6mph /  9.0km/h 6.3mph /  10.1km/h 81% 0in /  0.0mm
10:48 32.4 °F /  0.2 °C 27 °F /  -2.8 °C 30.5in /  1033.1hPa NE 4.3mph /  6.9km/h 7.2mph /  11.6km/h 80% 0in /  0.0mm
10:53 32.4 °F /  0.2 °C 26.6 °F /  -3.0 °C 30.5in /  1033.1hPa NE 5.6mph /  9.0km/h 7.2mph /  11.6km/h 79% 0in /  0.0mm
10:58 32.7 °F /  0.4 °C 27 °F /  -2.8 °C 30.5in /  1033.1hPa ENE 5.8mph /  9.3km/h 6.5mph /  10.5km/h 79% 0in /  0.0mm
11:03 33.1 °F /  0.6 °C 27 °F /  -2.8 °C 30.5in /  1033.1hPa East 5.6mph /  9.0km/h 6.5mph /  10.5km/h 78% 0in /  0.0mm
11:08 33.3 °F /  0.7 °C 26.4 °F /  -3.1 °C 30.5in /  1033.1hPa NE 3.8mph /  6.1km/h 6.9mph /  11.1km/h 76% 0in /  0.0mm
11:13 33.8 °F /  1.0 °C 26.8 °F /  -2.9 °C 30.5in /  1033.1hPa ENE 4mph /  6.4km/h 6.9mph /  11.1km/h 75% 0in /  0.0mm
11:18 34 °F /  1.1 °C 26.4 °F /  -3.1 °C 30.5in /  1033.1hPa NE 6mph /  9.7km/h 7.2mph /  11.6km/h 74% 0in /  0.0mm
11:23 34 °F /  1.1 °C 26.2 °F /  -3.2 °C 30.5in /  1033.1hPa NE 6.5mph /  10.5km/h 7.2mph /  11.6km/h 73% 0in /  0.0mm
11:28 34.3 °F /  1.3 °C 26.4 °F /  -3.1 °C 30.5in /  1033.1hPa ENE 5.4mph /  8.7km/h 6.5mph /  10.5km/h 73% 0in /  0.0mm
11:33 34.5 °F /  1.4 °C 26.4 °F /  -3.1 °C 30.5in /  1033.1hPa ENE 3.8mph /  6.1km/h 6.5mph /  10.5km/h 72% 0in /  0.0mm
11:38 34.9 °F /  1.6 °C 26.8 °F /  -2.9 °C 30.5in /  1032.1hPa ENE 6mph /  9.7km/h 6.5mph /  10.5km/h 72% 0in /  0.0mm
11:43 35.2 °F /  1.8 °C 26.8 °F /  -2.9 °C 30.5in /  1032.1hPa ENE 3.8mph /  6.1km/h 6.5mph /  10.5km/h 71% 0in /  0.0mm
11:48 35.4 °F /  1.9 °C 27 °F /  -2.8 °C 30.5in /  1032.1hPa ENE 6.5mph /  10.5km/h 8.1mph /  13.0km/h 71% 0in /  0.0mm
11:53 35.8 °F /  2.1 °C 26.4 °F /  -3.1 °C 30.5in /  1032.1hPa ENE 6mph /  9.7km/h 8.1mph /  13.0km/h 69% 0in /  0.0mm
11:58 35.8 °F /  2.1 °C 26.2 °F /  -3.2 °C 30.5in /  1032.1hPa NE 5.8mph /  9.3km/h 7.6mph /  12.2km/h 68% 0in /  0.0mm
12:03 36.1 °F /  2.3 °C 26.2 °F /  -3.2 °C 30.5in /  1032.1hPa NE 5.8mph /  9.3km/h 8.1mph /  13.0km/h 67% 0in /  0.0mm
12:08 36.1 °F /  2.3 °C 26.2 °F /  -3.2 °C 30.4in /  1031.0hPa ENE 4.9mph /  7.9km/h 8.1mph /  13.0km/h 67% 0in /  0.0mm
12:13 36.7 °F /  2.6 °C 25.9 °F /  -3.4 °C 30.4in /  1031.0hPa NE 5.8mph /  9.3km/h 8.1mph /  13.0km/h 65% 0in /  0.0mm
12:18 36.7 °F /  2.6 °C 25.5 °F /  -3.6 °C 30.4in /  1031.0hPa ENE 5.8mph /  9.3km/h 8.1mph /  13.0km/h 64% 0in /  0.0mm
12:23 36.7 °F /  2.6 °C 24.8 °F /  -4.0 °C 30.4in /  1031.0hPa East 6.5mph /  10.5km/h 8.5mph /  13.7km/h 62% 0in /  0.0mm
12:28 36.9 °F /  2.7 °C 25.2 °F /  -3.8 °C 30.4in /  1031.0hPa East 6.5mph /  10.5km/h 8.5mph /  13.7km/h 62% 0in /  0.0mm
12:33 37 °F /  2.8 °C 25 °F /  -3.9 °C 30.4in /  1031.0hPa ENE 6.3mph /  10.1km/h 7.6mph /  12.2km/h 61% 0in /  0.0mm
12:38 37.6 °F /  3.1 °C 24.4 °F /  -4.2 °C 30.4in /  1031.0hPa ENE 3.4mph /  5.5km/h 8.7mph /  14.0km/h 59% 0in /  0.0mm
12:43 37.6 °F /  3.1 °C 24.6 °F /  -4.1 °C 30.4in /  1031.0hPa East 6.9mph /  11.1km/h 9.8mph /  15.8km/h 59% 0in /  0.0mm
12:48 37.8 °F /  3.2 °C 23.9 °F /  -4.5 °C 30.4in /  1031.0hPa ENE 8.5mph /  13.7km/h 9.8mph /  15.8km/h 57% 0in /  0.0mm
12:53 37.9 °F /  3.3 °C 24.1 °F /  -4.4 °C 30.4in /  1031.0hPa ENE 5.6mph /  9.0km/h 8.7mph /  14.0km/h 57% 0in /  0.0mm
12:58 38.5 °F /  3.6 °C 24.4 °F /  -4.2 °C 30.4in /  1031.0hPa NNE 4.3mph /  6.9km/h 8.7mph /  14.0km/h 57% 0in /  0.0mm
13:03 38.5 °F /  3.6 °C 24.6 °F /  -4.1 °C 30.4in /  1031.0hPa East 5.4mph /  8.7km/h 7.8mph /  12.6km/h 57% 0in /  0.0mm
13:08 38.8 °F /  3.8 °C 25 °F /  -3.9 °C 30.4in /  1031.0hPa ENE 5.8mph /  9.3km/h 7.4mph /  11.9km/h 57% 0in /  0.0mm
13:13 39.2 °F /  4.0 °C 25.3 °F /  -3.7 °C 30.4in /  1031.0hPa NE 6mph /  9.7km/h 7.4mph /  11.9km/h 57% 0in /  0.0mm
13:18 39.4 °F /  4.1 °C 25.3 °F /  -3.7 °C 30.4in /  1031.0hPa NE 6mph /  9.7km/h 7.8mph /  12.6km/h 57% 0in /  0.0mm
13:23 39.2 °F /  4.0 °C 24.4 °F /  -4.2 °C 30.4in /  1031.0hPa ENE 7.4mph /  11.9km/h 8.5mph /  13.7km/h 55% 0in /  0.0mm
13:28 39.2 °F /  4.0 °C 24.1 °F /  -4.4 °C 30.4in /  1031.0hPa ENE 7.4mph /  11.9km/h 8.7mph /  14.0km/h 54% 0in /  0.0mm
13:33 39.2 °F /  4.0 °C 24.1 °F /  -4.4 °C 30.4in /  1031.0hPa ENE 9.6mph /  15.4km/h 10.1mph /  16.3km/h 54% 0in /  0.0mm
13:38 39.6 °F /  4.2 °C 24.3 °F /  -4.3 °C 30.4in /  1031.0hPa ENE 6.5mph /  10.5km/h 10.1mph /  16.3km/h 54% 0in /  0.0mm
13:43 39.6 °F /  4.2 °C 24.3 °F /  -4.3 °C 30.4in /  1031.0hPa ENE 8.5mph /  13.7km/h 9.6mph /  15.4km/h 54% 0in /  0.0mm
13:48 39.7 °F /  4.3 °C 24.4 °F /  -4.2 °C 30.4in /  1031.0hPa NE 7.4mph /  11.9km/h 8.5mph /  13.7km/h 54% 0in /  0.0mm
13:53 39.7 °F /  4.3 °C 24.1 °F /  -4.4 °C 30.4in /  1031.0hPa ENE 5.8mph /  9.3km/h 9.6mph /  15.4km/h 53% 0in /  0.0mm
13:58 40.1 °F /  4.5 °C 24.3 °F /  -4.3 °C 30.4in /  1031.0hPa ENE 5.8mph /  9.3km/h 9.8mph /  15.8km/h 53% 0in /  0.0mm
14:03 40.1 °F /  4.5 °C 24.3 °F /  -4.3 °C 30.4in /  1031.0hPa NNE 7.6mph /  12.2km/h 9.8mph /  15.8km/h 53% 0in /  0.0mm
14:08 39.7 °F /  4.3 °C 24.1 °F /  -4.4 °C 30.4in /  1030.0hPa NE 9.6mph /  15.4km/h 10.5mph /  16.9km/h 53% 0in /  0.0mm
14:13 39.6 °F /  4.2 °C 23.7 °F /  -4.6 °C 30.4in /  1030.0hPa NE 9.8mph /  15.8km/h 10.5mph /  16.9km/h 53% 0in /  0.0mm
14:18 39.6 °F /  4.2 °C 23.7 °F /  -4.6 °C 30.4in /  1030.0hPa NE 6mph /  9.7km/h 10.7mph /  17.2km/h 53% 0in /  0.0mm
14:23 39.7 °F /  4.3 °C 24.4 °F /  -4.2 °C 30.4in /  1030.0hPa ENE 6.5mph /  10.5km/h 10.7mph /  17.2km/h 54% 0in /  0.0mm
14:28 39.9 °F /  4.4 °C 24.6 °F /  -4.1 °C 30.4in /  1030.0hPa NE 6mph /  9.7km/h 8.7mph /  14.0km/h 54% 0in /  0.0mm
14:33 40.1 °F /  4.5 °C 24.3 °F /  -4.3 °C 30.4in /  1030.0hPa NE 4.9mph /  7.9km/h 8.7mph /  14.0km/h 53% 0in /  0.0mm
14:38 40.1 °F /  4.5 °C 24.3 °F /  -4.3 °C 30.4in /  1030.0hPa ENE 6.3mph /  10.1km/h 7.6mph /  12.2km/h 53% 0in /  0.0mm
14:43 40.1 °F /  4.5 °C 24.3 °F /  -4.3 °C 30.4in /  1030.0hPa NE 7.4mph /  11.9km/h 7.6mph /  12.2km/h 53% 0in /  0.0mm
14:48 40.1 °F /  4.5 °C 23.9 °F /  -4.5 °C 30.4in /  1030.0hPa NE 6mph /  9.7km/h 8.5mph /  13.7km/h 52% 0in /  0.0mm
14:53 40.1 °F /  4.5 °C 23.9 °F /  -4.5 °C 30.4in /  1030.0hPa NE 6.5mph /  10.5km/h 8.5mph /  13.7km/h 52% 0in /  0.0mm
14:58 40.3 °F /  4.6 °C 24.1 °F /  -4.4 °C 30.4in /  1030.0hPa ENE 5.8mph /  9.3km/h 7.8mph /  12.6km/h 52% 0in /  0.0mm
15:04 40.3 °F /  4.6 °C 24.4 °F /  -4.2 °C 30.4in /  1030.0hPa ENE 5.6mph /  9.0km/h 7.8mph /  12.6km/h 53% 0in /  0.0mm
15:09 40.5 °F /  4.7 °C 24.6 °F /  -4.1 °C 30.4in /  1030.0hPa ENE 6.5mph /  10.5km/h 6.5mph /  10.5km/h 53% 0in /  0.0mm
15:14 40.5 °F /  4.7 °C 24.3 °F /  -4.3 °C 30.4in /  1030.0hPa East 4mph /  6.4km/h 6.5mph /  10.5km/h 52% 0in /  0.0mm
15:19 40.6 °F /  4.8 °C 24.4 °F /  -4.2 °C 30.4in /  1030.0hPa NE 4mph /  6.4km/h 6.5mph /  10.5km/h 52% 0in /  0.0mm
15:24 40.5 °F /  4.7 °C 24.3 °F /  -4.3 °C 30.4in /  1030.0hPa ENE 4.3mph /  6.9km/h 6.7mph /  10.8km/h 52% 0in /  0.0mm
15:29 40.6 °F /  4.8 °C 24.4 °F /  -4.2 °C 30.4in /  1030.0hPa NE 4.3mph /  6.9km/h 6.7mph /  10.8km/h 52% 0in /  0.0mm
15:34 40.6 °F /  4.8 °C 24.4 °F /  -4.2 °C 30.4in /  1030.0hPa NE 4.7mph /  7.6km/h 6.3mph /  10.1km/h 52% 0in /  0.0mm
15:39 40.6 °F /  4.8 °C 24.4 °F /  -4.2 °C 30.4in /  1030.0hPa NE 3.8mph /  6.1km/h 6.3mph /  10.1km/h 52% 0in /  0.0mm
15:44 40.5 °F /  4.7 °C 24.3 °F /  -4.3 °C 30.4in /  1030.0hPa NE 5.4mph /  8.7km/h 6.3mph /  10.1km/h 52% 0in /  0.0mm
15:49 40.5 °F /  4.7 °C 24.3 °F /  -4.3 °C 30.4in /  1030.0hPa NE 3.8mph /  6.1km/h 6.3mph /  10.1km/h 52% 0in /  0.0mm
15:54 40.5 °F /  4.7 °C 23.7 °F /  -4.6 °C 30.4in /  1030.0hPa ENE 3.8mph /  6.1km/h 6.7mph /  10.8km/h 51% 0in /  0.0mm
15:59 40.3 °F /  4.6 °C 23.5 °F /  -4.7 °C 30.4in /  1030.0hPa East 3.8mph /  6.1km/h 6.7mph /  10.8km/h 51% 0in /  0.0mm
16:04 40.1 °F /  4.5 °C 23.4 °F /  -4.8 °C 30.4in /  1030.0hPa ENE 6mph /  9.7km/h 7.2mph /  11.6km/h 51% 0in /  0.0mm
16:09 40.1 °F /  4.5 °C 23.4 °F /  -4.8 °C 30.4in /  1030.0hPa East 4.9mph /  7.9km/h 7.2mph /  11.6km/h 51% 0in /  0.0mm
16:39 37.9 °F /  3.3 °C 21.6 °F /  -5.8 °C 30.4in /  1030.0hPa ENE 4mph /  6.4km/h 6.5mph /  10.5km/h 51% 0in /  0.0mm
16:44 37.8 °F /  3.2 °C 21.4 °F /  -5.9 °C 30.4in /  1030.0hPa East 3.8mph /  6.1km/h 6.5mph /  10.5km/h 51% 0in /  0.0mm
16:49 37.6 °F /  3.1 °C 21 °F /  -6.1 °C 30.4in /  1030.0hPa ENE 6.3mph /  10.1km/h 6.5mph /  10.5km/h 51% 0in /  0.0mm
16:54 37.2 °F /  2.9 °C 21.4 °F /  -5.9 °C 30.4in /  1030.0hPa NE 3.1mph /  5.0km/h 6.5mph /  10.5km/h 52% 0in /  0.0mm
16:59 36.9 °F /  2.7 °C 20.8 °F /  -6.2 °C 30.4in /  1030.0hPa ENE 3.8mph /  6.1km/h 5.6mph /  9.0km/h 52% 0in /  0.0mm
17:04 36.7 °F /  2.6 °C 20.7 °F /  -6.3 °C 30.4in /  1030.0hPa ENE 3.4mph /  5.5km/h 5.8mph /  9.3km/h 52% 0in /  0.0mm
17:09 36.1 °F /  2.3 °C 20.7 °F /  -6.3 °C 30.4in /  1030.0hPa ENE 4mph /  6.4km/h 5.8mph /  9.3km/h 53% 0in /  0.0mm
17:14 36 °F /  2.2 °C 20.5 °F /  -6.4 °C 30.4in /  1030.0hPa ENE 3.4mph /  5.5km/h 4.7mph /  7.6km/h 53% 0in /  0.0mm
17:19 35.8 °F /  2.1 °C 20.1 °F /  -6.6 °C 30.4in /  1030.0hPa NE 6.5mph /  10.5km/h 6.5mph /  10.5km/h 53% 0in /  0.0mm
17:24 35.4 °F /  1.9 °C 20.1 °F /  -6.6 °C 30.4in /  1030.0hPa NE 5.4mph /  8.7km/h 6.5mph /  10.5km/h 53% 0in /  0.0mm
17:29 35.4 °F /  1.9 °C 20.1 °F /  -6.6 °C 30.4in /  1030.0hPa ENE 4.3mph /  6.9km/h 6.5mph /  10.5km/h 53% 0in /  0.0mm
17:34 35.4 °F /  1.9 °C 20.5 °F /  -6.4 °C 30.4in /  1030.0hPa ENE 4.3mph /  6.9km/h 6mph /  9.7km/h 54% 0in /  0.0mm
17:44 35.1 °F /  1.7 °C 19.9 °F /  -6.7 °C 30.4in /  1030.0hPa ENE 3.6mph /  5.8km/h 5.8mph /  9.3km/h 54% 0in /  0.0mm
17:49 34.5 °F /  1.4 °C 19.9 °F /  -6.7 °C 30.4in /  1030.0hPa NE 3.6mph /  5.8km/h 5.8mph /  9.3km/h 55% 0in /  0.0mm
17:54 34 °F /  1.1 °C 19.6 °F /  -6.9 °C 30.4in /  1030.0hPa NNE 5.4mph /  8.7km/h 5.4mph /  8.7km/h 55% 0in /  0.0mm
17:59 34 °F /  1.1 °C 19.9 °F /  -6.7 °C 30.4in /  1030.0hPa NNE 5.6mph /  9.0km/h 6mph /  9.7km/h 56% 0in /  0.0mm
18:04 34.2 °F /  1.2 °C 19.9 °F /  -6.7 °C 30.4in /  1030.0hPa NE 5.6mph /  9.0km/h 6.3mph /  10.1km/h 56% 0in /  0.0mm
18:09 34.5 °F /  1.4 °C 20.5 °F /  -6.4 °C 30.4in /  1030.0hPa ENE 6.3mph /  10.1km/h 6.7mph /  10.8km/h 56% 0in /  0.0mm
18:14 34.3 °F /  1.3 °C 20.1 °F /  -6.6 °C 30.4in /  1030.0hPa NNE 5.4mph /  8.7km/h 6.7mph /  10.8km/h 56% 0in /  0.0mm
18:19 34.2 °F /  1.2 °C 19.9 °F /  -6.7 °C 30.4in /  1030.0hPa NE 3.8mph /  6.1km/h 6.3mph /  10.1km/h 56% 0in /  0.0mm
18:24 33.8 °F /  1.0 °C 20.1 °F /  -6.6 °C 30.4in /  1030.0hPa NNE 4.9mph /  7.9km/h 5.4mph /  8.7km/h 57% 0in /  0.0mm
18:29 33.4 °F /  0.8 °C 20.1 °F /  -6.6 °C 30.4in /  1030.0hPa NE 4mph /  6.4km/h 4.9mph /  7.9km/h 58% 0in /  0.0mm
18:34 33.3 °F /  0.7 °C 19.9 °F /  -6.7 °C 30.4in /  1030.0hPa NNE 3.8mph /  6.1km/h 5.6mph /  9.0km/h 58% 0in /  0.0mm
18:39 33.3 °F /  0.7 °C 20.5 °F /  -6.4 °C 30.4in /  1030.0hPa NNE 4mph /  6.4km/h 5.8mph /  9.3km/h 59% 0in /  0.0mm
18:44 33.1 °F /  0.6 °C 21 °F /  -6.1 °C 30.4in /  1030.0hPa NNE 3.4mph /  5.5km/h 5.8mph /  9.3km/h 61% 0in /  0.0mm
18:49 32.7 °F /  0.4 °C 20.7 °F /  -6.3 °C 30.4in /  1030.0hPa NNE 3.8mph /  6.1km/h 5.6mph /  9.0km/h 61% 0in /  0.0mm
18:54 32.5 °F /  0.3 °C 20.8 °F /  -6.2 °C 30.4in /  1030.0hPa NNE 3.1mph /  5.0km/h 4.9mph /  7.9km/h 62% 0in /  0.0mm
18:59 32.2 °F /  0.1 °C 21 °F /  -6.1 °C 30.4in /  1030.0hPa NNE 4.7mph /  7.6km/h 4.9mph /  7.9km/h 63% 0in /  0.0mm
19:04 31.8 °F /  -0.1 °C 21.7 °F /  -5.7 °C 30.4in /  1030.0hPa NE 3.1mph /  5.0km/h 4.9mph /  7.9km/h 66% 0in /  0.0mm
19:09 31.6 °F /  -0.2 °C 21.6 °F /  -5.8 °C 30.4in /  1030.0hPa NNE 3.6mph /  5.8km/h 4.9mph /  7.9km/h 66% 0in /  0.0mm
19:14 31.3 °F /  -0.4 °C 21.2 °F /  -6.0 °C 30.4in /  1030.0hPa NE 4mph /  6.4km/h 4.7mph /  7.6km/h 66% 0in /  0.0mm
19:19 31.3 °F /  -0.4 °C 21.6 °F /  -5.8 °C 30.4in /  1030.0hPa NNE 3.1mph /  5.0km/h 4.7mph /  7.6km/h 67% 0in /  0.0mm
19:24 31.1 °F /  -0.5 °C 21.4 °F /  -5.9 °C 30.4in /  1030.0hPa NE 3.8mph /  6.1km/h 4.3mph /  6.9km/h 67% 0in /  0.0mm
19:29 31.1 °F /  -0.5 °C 21.7 °F /  -5.7 °C 30.4in /  1030.0hPa NE 4mph /  6.4km/h 4.5mph /  7.2km/h 68% 0in /  0.0mm
19:34 31.1 °F /  -0.5 °C 21.7 °F /  -5.7 °C 30.4in /  1030.0hPa NE 5.8mph /  9.3km/h 5.8mph /  9.3km/h 68% 0in /  0.0mm
19:39 31.3 °F /  -0.4 °C 22.6 °F /  -5.2 °C 30.4in /  1030.0hPa ENE 5.8mph /  9.3km/h 6.5mph /  10.5km/h 70% 0in /  0.0mm
19:44 31.8 °F /  -0.1 °C 23.7 °F /  -4.6 °C 30.4in /  1030.0hPa NE 7.6mph /  12.2km/h 7.6mph /  12.2km/h 72% 0in /  0.0mm
19:49 32.2 °F /  0.1 °C 24.3 °F /  -4.3 °C 30.4in /  1030.0hPa NE 7.2mph /  11.6km/h 7.6mph /  12.2km/h 72% 0in /  0.0mm
19:54 32.5 °F /  0.3 °C 24.3 °F /  -4.3 °C 30.4in /  1030.0hPa ENE 5.8mph /  9.3km/h 7.8mph /  12.6km/h 71% 0in /  0.0mm
19:59 32.5 °F /  0.3 °C 24.3 °F /  -4.3 °C 30.4in /  1030.0hPa NE 5.8mph /  9.3km/h 7.8mph /  12.6km/h 71% 0in /  0.0mm
20:04 32.7 °F /  0.4 °C 24.1 °F /  -4.4 °C 30.4in /  1030.0hPa NE 5.6mph /  9.0km/h 7.4mph /  11.9km/h 70% 0in /  0.0mm
20:09 32.7 °F /  0.4 °C 23.7 °F /  -4.6 °C 30.4in /  1030.0hPa ENE 5.4mph /  8.7km/h 7.4mph /  11.9km/h 69% 0in /  0.0mm
20:14 32.7 °F /  0.4 °C 23.4 °F /  -4.8 °C 30.4in /  1030.0hPa NE 5.4mph /  8.7km/h 7.2mph /  11.6km/h 68% 0in /  0.0mm
20:19 32.7 °F /  0.4 °C 23.4 °F /  -4.8 °C 30.4in /  1030.0hPa ENE 5.6mph /  9.0km/h 7.2mph /  11.6km/h 68% 0in /  0.0mm
20:24 32.5 °F /  0.3 °C 22.8 °F /  -5.1 °C 30.4in /  1030.0hPa ENE 5.8mph /  9.3km/h 6mph /  9.7km/h 67% 0in /  0.0mm
20:29 32.4 °F /  0.2 °C 22.6 °F /  -5.2 °C 30.4in /  1030.0hPa East 5.4mph /  8.7km/h 5.8mph /  9.3km/h 67% 0in /  0.0mm
20:34 32.2 °F /  0.1 °C 22.5 °F /  -5.3 °C 30.4in /  1030.0hPa ENE 4.3mph /  6.9km/h 5.6mph /  9.0km/h 67% 0in /  0.0mm
20:39 32 °F /  0.0 °C 22.3 °F /  -5.4 °C 30.4in /  1030.0hPa NE 3.8mph /  6.1km/h 5.6mph /  9.0km/h 67% 0in /  0.0mm
20:44 32 °F /  0.0 °C 22.3 °F /  -5.4 °C 30.4in /  1030.0hPa ENE 5.6mph /  9.0km/h 5.6mph /  9.0km/h 67% 0in /  0.0mm
20:49 32 °F /  0.0 °C 22.3 °F /  -5.4 °C 30.4in /  1030.0hPa ENE 4.3mph /  6.9km/h 5.6mph /  9.0km/h 67% 0in /  0.0mm
20:54 31.8 °F /  -0.1 °C 22.1 °F /  -5.5 °C 30.4in /  1030.0hPa East 3.6mph /  5.8km/h 5.4mph /  8.7km/h 67% 0in /  0.0mm
20:59 31.6 °F /  -0.2 °C 21.9 °F /  -5.6 °C 30.4in /  1030.0hPa NE 3.8mph /  6.1km/h 4.7mph /  7.6km/h 67% 0in /  0.0mm
21:04 31.6 °F /  -0.2 °C 21.9 °F /  -5.6 °C 30.4in /  1030.0hPa ENE 3.4mph /  5.5km/h 4.9mph /  7.9km/h 67% 0in /  0.0mm
21:09 31.5 °F /  -0.3 °C 21.4 °F /  -5.9 °C 30.4in /  1030.0hPa ENE 3.1mph /  5.0km/h 4.9mph /  7.9km/h 66% 0in /  0.0mm
21:14 31.5 °F /  -0.3 °C 21.4 °F /  -5.9 °C 30.4in /  1030.0hPa ENE 3.6mph /  5.8km/h 4.7mph /  7.6km/h 66% 0in /  0.0mm
21:19 31.5 °F /  -0.3 °C 21.4 °F /  -5.9 °C 30.4in /  1030.0hPa ENE 3.4mph /  5.5km/h 4.7mph /  7.6km/h 66% 0in /  0.0mm
21:24 31.3 °F /  -0.4 °C 21.2 °F /  -6.0 °C 30.4in /  1030.0hPa ENE 3.6mph /  5.8km/h 4.7mph /  7.6km/h 66% 0in /  0.0mm
21:29 31.3 °F /  -0.4 °C 21.2 °F /  -6.0 °C 30.4in /  1030.0hPa NE 4.3mph /  6.9km/h 4.3mph /  6.9km/h 66% 0in /  0.0mm
21:34 31.3 °F /  -0.4 °C 21.2 °F /  -6.0 °C 30.4in /  1030.0hPa East 5.4mph /  8.7km/h 5.8mph /  9.3km/h 66% 0in /  0.0mm
21:39 31.3 °F /  -0.4 °C 21.2 °F /  -6.0 °C 30.4in /  1030.0hPa East 4.3mph /  6.9km/h 5.8mph /  9.3km/h 66% 0in /  0.0mm
21:44 31.1 °F /  -0.5 °C 21 °F /  -6.1 °C 30.4in /  1030.0hPa ENE 3.4mph /  5.5km/h 4.9mph /  7.9km/h 66% 0in /  0.0mm
21:49 30.9 °F /  -0.6 °C 20.8 °F /  -6.2 °C 30.4in /  1030.0hPa ENE 3.8mph /  6.1km/h 4.3mph /  6.9km/h 66% 0in /  0.0mm
21:54 30.9 °F /  -0.6 °C 20.8 °F /  -6.2 °C 30.4in /  1030.0hPa ENE 3.8mph /  6.1km/h 4.3mph /  6.9km/h 66% 0in /  0.0mm
21:59 30.7 °F /  -0.7 °C 20.7 °F /  -6.3 °C 30.4in /  1030.0hPa ENE 3.6mph /  5.8km/h 4.3mph /  6.9km/h 66% 0in /  0.0mm
22:04 30.6 °F /  -0.8 °C 20.7 °F /  -6.3 °C 30.4in /  1030.0hPa East 4mph /  6.4km/h 4.5mph /  7.2km/h 66% 0in /  0.0mm
22:09 30.4 °F /  -0.9 °C 20.5 °F /  -6.4 °C 30.4in /  1030.0hPa ENE 3.1mph /  5.0km/h 4.5mph /  7.2km/h 66% 0in /  0.0mm
22:14 30.2 °F /  -1.0 °C 20.1 °F /  -6.6 °C 30.4in /  1030.0hPa ENE 3.1mph /  5.0km/h 4mph /  6.4km/h 66% 0in /  0.0mm
22:19 30.2 °F /  -1.0 °C 20.1 °F /  -6.6 °C 30.4in /  1030.0hPa ENE 3.6mph /  5.8km/h 4mph /  6.4km/h 66% 0in /  0.0mm
22:24 30.2 °F /  -1.0 °C 20.1 °F /  -6.6 °C 30.4in /  1030.0hPa ENE 4.3mph /  6.9km/h 4.3mph /  6.9km/h 66% 0in /  0.0mm
22:29 30 °F /  -1.1 °C 20.5 °F /  -6.4 °C 30.4in /  1030.0hPa ENE 3.4mph /  5.5km/h 4.7mph /  7.6km/h 67% 0in /  0.0mm
22:34 29.8 °F /  -1.2 °C 20.3 °F /  -6.5 °C 30.4in /  1030.0hPa East 2.9mph /  4.7km/h 4.7mph /  7.6km/h 67% 0in /  0.0mm
22:39 29.7 °F /  -1.3 °C 20.1 °F /  -6.6 °C 30.4in /  1030.0hPa ENE 2.7mph /  4.3km/h 4mph /  6.4km/h 67% 0in /  0.0mm
22:44 29.5 °F /  -1.4 °C 19.9 °F /  -6.7 °C 30.4in /  1030.0hPa ENE 3.6mph /  5.8km/h 4mph /  6.4km/h 67% 0in /  0.0mm
22:49 29.5 °F /  -1.4 °C 19.8 °F /  -6.8 °C 30.4in /  1030.0hPa ENE 3.1mph /  5.0km/h 4mph /  6.4km/h 67% 0in /  0.0mm
22:54 29.1 °F /  -1.6 °C 19.9 °F /  -6.7 °C 30.4in /  1030.0hPa ENE 3.6mph /  5.8km/h 3.8mph /  6.1km/h 68% 0in /  0.0mm
22:59 29.1 °F /  -1.6 °C 19.9 °F /  -6.7 °C 30.4in /  1030.0hPa East 3.4mph /  5.5km/h 4.3mph /  6.9km/h 68% 0in /  0.0mm
23:04 29.1 °F /  -1.6 °C 19.9 °F /  -6.7 °C 30.4in /  1030.0hPa ENE 3.6mph /  5.8km/h 4.3mph /  6.9km/h 68% 0in /  0.0mm
23:09 29.5 °F /  -1.4 °C 20.1 °F /  -6.6 °C 30.4in /  1030.0hPa East 3.4mph /  5.5km/h 4.9mph /  7.9km/h 68% 0in /  0.0mm
23:14 29.5 °F /  -1.4 °C 20.3 °F /  -6.5 °C 30.4in /  1030.0hPa ENE 3.4mph /  5.5km/h 4.9mph /  7.9km/h 68% 0in /  0.0mm
23:19 29.5 °F /  -1.4 °C 20.3 °F /  -6.5 °C 30.4in /  1030.0hPa ENE 3.6mph /  5.8km/h 4.7mph /  7.6km/h 68% 0in /  0.0mm
23:24 29.5 °F /  -1.4 °C 20.7 °F /  -6.3 °C 30.4in /  1030.0hPa ENE 4.7mph /  7.6km/h 5.4mph /  8.7km/h 69% 0in /  0.0mm
23:29 29.5 °F /  -1.4 °C 20.7 °F /  -6.3 °C 30.4in /  1030.0hPa ENE 3.4mph /  5.5km/h 5.4mph /  8.7km/h 69% 0in /  0.0mm
23:34 29.5 °F /  -1.4 °C 20.7 °F /  -6.3 °C 30.4in /  1030.0hPa ENE 3.8mph /  6.1km/h 4.9mph /  7.9km/h 69% 0in /  0.0mm
23:39 29.5 °F /  -1.4 °C 20.7 °F /  -6.3 °C 30.4in /  1030.0hPa ENE 4mph /  6.4km/h 5.8mph /  9.3km/h 69% 0in /  0.0mm
23:44 29.5 °F /  -1.4 °C 20.5 °F /  -6.4 °C 30.4in /  1030.0hPa ENE 3.1mph /  5.0km/h 5.8mph /  9.3km/h 69% 0in /  0.0mm
23:49 29.1 °F /  -1.6 °C 20.3 °F /  -6.5 °C 30.4in /  1030.0hPa ENE 3.6mph /  5.8km/h 4.3mph /  6.9km/h 69% 0in /  0.0mm
23:54 29.5 °F /  -1.4 °C 20.5 °F /  -6.4 °C 30.4in /  1030.0hPa ENE 3.8mph /  6.1km/h 4.3mph /  6.9km/h 69% 0in /  0.0mm
23:59 29.1 °F /  -1.6 °C 20.3 °F /  -6.5 °C 30.4in /  1030.0hPa ENE 3.8mph /  6.1km/h 4.9mph /  7.9km/h 69% 0in /  0.0mm
Données Historique de Météo Turbie

Mise a jour : 22/05/2018 21:44:16
Généré par Cumulus 1.9.4 (1099)